
Distance (Route):
Temperature : 6.2°C
Humidity : 0%
Pressure : 0hPa| Receiver | Frames | First received | Last received |
|---|---|---|---|
| KE7DJD | 139 | 2026-09-01 15:09:15 | 2026-09-01 16:04:58 |
| Receiver | Date | Latitude | Longitude | Direction | Speed | Altitude | Climb | Temperature | Humidity | Pressure | Voltage | Killtimer | Uptime | BKT | XDATA |
|---|---|---|---|---|---|---|---|---|---|---|---|---|---|---|---|
| KE7DJD | 2026-09-01 16:04:58 | 45.33942 | -118.03033 | 5° | 37km/h | 4118m | -4.8m/s | 6.2°C | 0% | 0hPa | 0V | 00:00:00 | 00:00:00 | 00:00:00 | |
| KE7DJD | 2026-09-01 16:04:17 | 45.33550 | -118.03027 | 360° | 40km/h | 4308m | -3.9m/s | 5.0°C | 0% | 0hPa | 0V | 00:00:00 | 00:00:00 | 00:00:00 | |
| KE7DJD | 2026-09-01 16:02:56 | 45.32728 | -118.02945 | 347° | 40km/h | 4666m | -3.4m/s | 3.3°C | 0% | 0hPa | 0V | 00:00:00 | 00:00:00 | 00:00:00 | |
| KE7DJD | 2026-09-01 16:02:13 | 45.32323 | -118.02831 | 348° | 38km/h | 4816m | -3.3m/s | 2.4°C | 0% | 0hPa | 0V | 00:00:00 | 00:00:00 | 00:00:00 | |
| KE7DJD | 2026-09-01 16:01:32 | 45.31945 | -118.02701 | 346° | 35km/h | 4955m | -4.2m/s | 1.2°C | 0% | 0hPa | 0V | 00:00:00 | 00:00:00 | 00:00:00 | |
| KE7DJD | 2026-09-01 16:01:11 | 45.31759 | -118.02627 | 343° | 37km/h | 5038m | -3.5m/s | 0.6°C | 0% | 0hPa | 0V | 00:00:00 | 00:00:00 | 00:00:00 | |
| KE7DJD | 2026-09-01 16:00:34 | 45.31449 | -118.02482 | 343° | 35km/h | 5171m | -3.7m/s | -0.3°C | 0% | 0hPa | 0V | 00:00:00 | 00:00:00 | 00:00:00 | |
| KE7DJD | 2026-09-01 15:59:55 | 45.31113 | -118.02292 | 339° | 38km/h | 5329m | -4.7m/s | -1.3°C | 0% | 0hPa | 0V | 00:00:00 | 00:00:00 | 00:00:00 | |
| KE7DJD | 2026-09-01 15:59:18 | 45.30806 | -118.02117 | 339° | 33km/h | 5477m | -3.4m/s | -2.3°C | 0% | 0hPa | 0V | 00:00:00 | 00:00:00 | 00:00:00 | |
| KE7DJD | 2026-09-01 15:58:57 | 45.30647 | -118.02028 | 340° | 31km/h | 5552m | -3.8m/s | -2.8°C | 0% | 0hPa | 0V | 00:00:00 | 00:00:00 | 00:00:00 | |
| KE7DJD | 2026-09-01 15:58:09 | 45.30315 | -118.01889 | 355° | 31km/h | 5727m | -4.2m/s | -4.0°C | 0% | 0hPa | 0V | 00:00:00 | 00:00:00 | 00:00:00 | |
| KE7DJD | 2026-09-01 15:57:23 | 45.29951 | -118.01829 | 352° | 31km/h | 5907m | -3.4m/s | -5.5°C | 0% | 0hPa | 0V | 00:00:00 | 00:00:00 | 00:00:00 | |
| KE7DJD | 2026-09-01 15:56:52 | 45.29714 | -118.01779 | 353° | 31km/h | 6022m | -3.2m/s | -6.3°C | 0% | 0hPa | 0V | 00:00:00 | 00:00:00 | 00:00:00 | |
| KE7DJD | 2026-09-01 15:56:31 | 45.29545 | -118.01743 | 349° | 31km/h | 6098m | -3.7m/s | -6.8°C | 0% | 0hPa | 0V | 00:00:00 | 00:00:00 | 00:00:00 | |
| KE7DJD | 2026-09-01 15:55:59 | 45.29325 | -118.01687 | 357° | 27km/h | 6209m | -4.7m/s | -7.6°C | 0% | 0hPa | 0V | 00:00:00 | 00:00:00 | 00:00:00 | |
| KE7DJD | 2026-09-01 15:55:04 | 45.28945 | -118.01671 | 348° | 35km/h | 6455m | -4.6m/s | -9.6°C | 0% | 0hPa | 0V | 00:00:00 | 00:00:00 | 00:00:00 | |
| KE7DJD | 2026-09-01 15:54:34 | 45.28708 | -118.01665 | 2° | 35km/h | 6589m | -5.3m/s | -10.7°C | 0% | 0hPa | 0V | 00:00:00 | 00:00:00 | 00:00:00 | |
| KE7DJD | 2026-09-01 15:54:14 | 45.28554 | -118.01671 | 10° | 29km/h | 6688m | -3.9m/s | -11.4°C | 0% | 0hPa | 0V | 00:00:00 | 00:00:00 | 00:00:00 | |
| KE7DJD | 2026-09-01 15:53:34 | 45.28224 | -118.01762 | 9° | 38km/h | 6861m | -4.6m/s | -12.9°C | 0% | 0hPa | 0V | 00:00:00 | 00:00:00 | 00:00:00 | |
| KE7DJD | 2026-09-01 15:53:12 | 45.27995 | -118.01823 | 11° | 44km/h | 6984m | -4.7m/s | -14.0°C | 0% | 0hPa | 0V | 00:00:00 | 00:00:00 | 00:00:00 | |
| KE7DJD | 2026-09-01 15:52:50 | 45.27765 | -118.01924 | 24° | 46km/h | 7121m | -6.3m/s | -15.2°C | 0% | 0hPa | 0V | 00:00:00 | 00:00:00 | 00:00:00 | |
| KE7DJD | 2026-09-01 15:52:20 | 45.27439 | -118.02155 | 27° | 49km/h | 7301m | -5.4m/s | -16.3°C | 0% | 0hPa | 0V | 00:00:00 | 00:00:00 | 00:00:00 | |
| KE7DJD | 2026-09-01 15:51:56 | 45.27148 | -118.02357 | 27° | 58km/h | 7433m | -5.3m/s | -17.2°C | 0% | 0hPa | 0V | 00:00:00 | 00:00:00 | 00:00:00 | |
| KE7DJD | 2026-09-01 15:51:36 | 45.26860 | -118.02551 | 26° | 62km/h | 7548m | -5.2m/s | -18.2°C | 0% | 0hPa | 0V | 00:00:00 | 00:00:00 | 00:00:00 | |
| KE7DJD | 2026-09-01 15:51:14 | 45.26563 | -118.02727 | 22° | 60km/h | 7665m | -5.9m/s | -19.3°C | 0% | 0hPa | 0V | 00:00:00 | 00:00:00 | 00:00:00 | |
| KE7DJD | 2026-09-01 15:50:54 | 45.26255 | -118.02889 | 23° | 62km/h | 7783m | -5.4m/s | -20.3°C | 0% | 0hPa | 0V | 00:00:00 | 00:00:00 | 00:00:00 | |
| KE7DJD | 2026-09-01 15:50:30 | 45.25902 | -118.03081 | 22° | 69km/h | 7910m | -5.0m/s | -21.3°C | 0% | 0hPa | 0V | 00:00:00 | 00:00:00 | 00:00:00 | |
| KE7DJD | 2026-09-01 15:50:10 | 45.25538 | -118.03260 | 20° | 75km/h | 8025m | -5.8m/s | -21.9°C | 0% | 0hPa | 0V | 00:00:00 | 00:00:00 | 00:00:00 | |
| KE7DJD | 2026-09-01 15:49:49 | 45.25166 | -118.03425 | 18° | 77km/h | 8141m | -5.2m/s | -22.9°C | 0% | 0hPa | 0V | 00:00:00 | 00:00:00 | 00:00:00 | |
| KE7DJD | 2026-09-01 15:49:27 | 45.24770 | -118.03573 | 14° | 77km/h | 8257m | -5.3m/s | -23.7°C | 0% | 0hPa | 0V | 00:00:00 | 00:00:00 | 00:00:00 | |
| KE7DJD | 2026-09-01 15:49:06 | 45.24359 | -118.03706 | 13° | 80km/h | 8373m | -5.8m/s | -24.7°C | 0% | 0hPa | 0V | 00:00:00 | 00:00:00 | 00:00:00 | |
| KE7DJD | 2026-09-01 15:48:43 | 45.23895 | -118.03853 | 13° | 82km/h | 8499m | -5.6m/s | -25.6°C | 0% | 0hPa | 0V | 00:00:00 | 00:00:00 | 00:00:00 | |
| KE7DJD | 2026-09-01 15:48:23 | 45.23459 | -118.03970 | 10° | 84km/h | 8617m | -5.7m/s | -26.7°C | 0% | 0hPa | 0V | 00:00:00 | 00:00:00 | 00:00:00 | |
| KE7DJD | 2026-09-01 15:48:00 | 45.22984 | -118.04074 | 8° | 88km/h | 8747m | -5.5m/s | -27.7°C | 0% | 0hPa | 0V | 00:00:00 | 00:00:00 | 00:00:00 | |
| KE7DJD | 2026-09-01 15:47:37 | 45.22462 | -118.04142 | 5° | 93km/h | 8874m | -5.7m/s | -28.9°C | 0% | 0hPa | 0V | 00:00:00 | 00:00:00 | 00:00:00 | |
| KE7DJD | 2026-09-01 15:47:12 | 45.21845 | -118.04187 | 4° | 95km/h | 9012m | -5.7m/s | -30.1°C | 0% | 0hPa | 0V | 00:00:00 | 00:00:00 | 00:00:00 | |
| KE7DJD | 2026-09-01 15:46:49 | 45.21317 | -118.04228 | 4° | 95km/h | 9135m | -5.5m/s | -31.1°C | 0% | 0hPa | 0V | 00:00:00 | 00:00:00 | 00:00:00 | |
| KE7DJD | 2026-09-01 15:46:20 | 45.20625 | -118.04278 | 4° | 93km/h | 9301m | -5.6m/s | -32.7°C | 0% | 0hPa | 0V | 00:00:00 | 00:00:00 | 00:00:00 | |
| KE7DJD | 2026-09-01 15:45:59 | 45.20127 | -118.04314 | 3° | 95km/h | 9430m | -6.0m/s | -33.8°C | 0% | 0hPa | 0V | 00:00:00 | 00:00:00 | 00:00:00 | |
| KE7DJD | 2026-09-01 15:45:37 | 45.19578 | -118.04355 | 5° | 97km/h | 9564m | -6.0m/s | -35.0°C | 0% | 0hPa | 0V | 00:00:00 | 00:00:00 | 00:00:00 | |
| KE7DJD | 2026-09-01 15:45:15 | 45.19065 | -118.04412 | 7° | 99km/h | 9694m | -6.0m/s | -36.1°C | 0% | 0hPa | 0V | 00:00:00 | 00:00:00 | 00:00:00 | |
| KE7DJD | 2026-09-01 15:44:54 | 45.18538 | -118.04506 | 9° | 100km/h | 9828m | -6.6m/s | -37.3°C | 0% | 0hPa | 0V | 00:00:00 | 00:00:00 | 00:00:00 | |
| KE7DJD | 2026-09-01 15:44:32 | 45.17988 | -118.04621 | 9° | 99km/h | 9971m | -6.3m/s | -38.6°C | 0% | 0hPa | 0V | 00:00:00 | 00:00:00 | 00:00:00 | |
| KE7DJD | 2026-09-01 15:44:11 | 45.17451 | -118.04741 | 10° | 97km/h | 10104m | -6.0m/s | -39.7°C | 0% | 0hPa | 0V | 00:00:00 | 00:00:00 | 00:00:00 | |
| KE7DJD | 2026-09-01 15:43:50 | 45.16977 | -118.04874 | 14° | 97km/h | 10228m | -6.2m/s | -40.5°C | 0% | 0hPa | 0V | 00:00:00 | 00:00:00 | 00:00:00 | |
| KE7DJD | 2026-09-01 15:43:22 | 45.16340 | -118.05113 | 17° | 89km/h | 10407m | -6.3m/s | -41.8°C | 0% | 0hPa | 0V | 00:00:00 | 00:00:00 | 00:00:00 | |
| KE7DJD | 2026-09-01 15:42:58 | 45.15829 | -118.05316 | 16° | 88km/h | 10553m | -5.7m/s | -43.1°C | 0% | 0hPa | 0V | 00:00:00 | 00:00:00 | 00:00:00 | |
| KE7DJD | 2026-09-01 15:42:36 | 45.15342 | -118.05488 | 15° | 91km/h | 10685m | -6.2m/s | -44.3°C | 0% | 0hPa | 0V | 00:00:00 | 00:00:00 | 00:00:00 | |
| KE7DJD | 2026-09-01 15:42:14 | 45.14825 | -118.05662 | 14° | 99km/h | 10824m | -6.0m/s | -45.5°C | 0% | 0hPa | 0V | 00:00:00 | 00:00:00 | 00:00:00 | |
| KE7DJD | 2026-09-01 15:41:54 | 45.14342 | -118.05814 | 14° | 93km/h | 10952m | -6.1m/s | -46.4°C | 0% | 0hPa | 0V | 00:00:00 | 00:00:00 | 00:00:00 | |
| KE7DJD | 2026-09-01 15:41:33 | 45.13882 | -118.05943 | 10° | 86km/h | 11080m | -6.4m/s | -46.6°C | 0% | 0hPa | 0V | 00:00:00 | 00:00:00 | 00:00:00 | |
| KE7DJD | 2026-09-01 15:41:12 | 45.13418 | -118.06055 | 12° | 91km/h | 11209m | -5.9m/s | -47.1°C | 0% | 0hPa | 0V | 00:00:00 | 00:00:00 | 00:00:00 | |
| KE7DJD | 2026-09-01 15:40:50 | 45.12945 | -118.06187 | 13° | 82km/h | 11344m | -6.2m/s | -47.8°C | 0% | 0hPa | 0V | 00:00:00 | 00:00:00 | 00:00:00 | |
| KE7DJD | 2026-09-01 15:40:29 | 45.12533 | -118.06314 | 14° | 77km/h | 11473m | -5.8m/s | -48.3°C | 0% | 0hPa | 0V | 00:00:00 | 00:00:00 | 00:00:00 | |
| KE7DJD | 2026-09-01 15:40:08 | 45.12146 | -118.06433 | 12° | 73km/h | 11605m | -6.0m/s | -49.4°C | 0% | 0hPa | 0V | 00:00:00 | 00:00:00 | 00:00:00 | |
| KE7DJD | 2026-09-01 15:39:48 | 45.11757 | -118.06521 | 7° | 77km/h | 11737m | -6.1m/s | -50.2°C | 0% | 0hPa | 0V | 00:00:00 | 00:00:00 | 00:00:00 | |
| KE7DJD | 2026-09-01 15:39:27 | 45.11340 | -118.06492 | 354° | 82km/h | 11870m | -6.2m/s | -49.8°C | 0% | 0hPa | 0V | 00:00:00 | 00:00:00 | 00:00:00 | |
| KE7DJD | 2026-09-01 15:39:06 | 45.10933 | -118.06423 | 356° | 80km/h | 11997m | -6.4m/s | -49.5°C | 0% | 0hPa | 0V | 00:00:00 | 00:00:00 | 00:00:00 | |
| KE7DJD | 2026-09-01 15:38:45 | 45.10503 | -118.06418 | 3° | 80km/h | 12132m | -6.3m/s | -49.0°C | 0% | 0hPa | 0V | 00:00:00 | 00:00:00 | 00:00:00 | |
| KE7DJD | 2026-09-01 15:38:25 | 45.10089 | -118.06472 | 8° | 86km/h | 12258m | -6.1m/s | -49.3°C | 0% | 0hPa | 0V | 00:00:00 | 00:00:00 | 00:00:00 | |
| KE7DJD | 2026-09-01 15:38:04 | 45.09638 | -118.06552 | 7° | 80km/h | 12393m | -6.0m/s | -49.0°C | 0% | 0hPa | 0V | 00:00:00 | 00:00:00 | 00:00:00 | |
| KE7DJD | 2026-09-01 15:37:42 | 45.09241 | -118.06676 | 17° | 69km/h | 12523m | -6.1m/s | -47.1°C | 0% | 0hPa | 0V | 00:00:00 | 00:00:00 | 00:00:00 | |
| KE7DJD | 2026-09-01 15:37:19 | 45.08880 | -118.06834 | 18° | 62km/h | 12677m | -6.9m/s | -46.4°C | 0% | 0hPa | 0V | 00:00:00 | 00:00:00 | 00:00:00 | |
| KE7DJD | 2026-09-01 15:36:58 | 45.08551 | -118.06950 | 14° | 62km/h | 12826m | -7.2m/s | -46.1°C | 0% | 0hPa | 0V | 00:00:00 | 00:00:00 | 00:00:00 | |
| KE7DJD | 2026-09-01 15:36:35 | 45.08181 | -118.07049 | 15° | 69km/h | 12987m | -6.8m/s | -47.1°C | 0% | 0hPa | 0V | 00:00:00 | 00:00:00 | 00:00:00 | |
| KE7DJD | 2026-09-01 15:36:15 | 45.07819 | -118.07182 | 18° | 75km/h | 13124m | -6.7m/s | -47.2°C | 0% | 0hPa | 0V | 00:00:00 | 00:00:00 | 00:00:00 | |
| KE7DJD | 2026-09-01 15:35:55 | 45.07465 | -118.07370 | 28° | 77km/h | 13268m | -6.8m/s | -45.5°C | 0% | 0hPa | 0V | 00:00:00 | 00:00:00 | 00:00:00 | |
| KE7DJD | 2026-09-01 15:35:34 | 45.07135 | -118.07659 | 33° | 69km/h | 13412m | -7.0m/s | -44.9°C | 0% | 0hPa | 0V | 00:00:00 | 00:00:00 | 00:00:00 | |
| KE7DJD | 2026-09-01 15:35:12 | 45.06829 | -118.07925 | 32° | 60km/h | 13563m | -6.8m/s | -45.6°C | 0% | 0hPa | 0V | 00:00:00 | 00:00:00 | 00:00:00 | |
| KE7DJD | 2026-09-01 15:34:50 | 45.06579 | -118.08133 | 26° | 49km/h | 13725m | -7.3m/s | -46.3°C | 0% | 0hPa | 0V | 00:00:00 | 00:00:00 | 00:00:00 | |
| KE7DJD | 2026-09-01 15:34:27 | 45.06315 | -118.08302 | 24° | 47km/h | 13890m | -7.4m/s | -46.2°C | 0% | 0hPa | 0V | 00:00:00 | 00:00:00 | 00:00:00 | |
| KE7DJD | 2026-09-01 15:34:06 | 45.06052 | -118.08434 | 24° | 57km/h | 14059m | -7.4m/s | -46.5°C | 0% | 0hPa | 0V | 00:00:00 | 00:00:00 | 00:00:00 | |
| KE7DJD | 2026-09-01 15:33:44 | 45.05773 | -118.08616 | 27° | 60km/h | 14222m | -7.7m/s | -46.5°C | 0% | 0hPa | 0V | 00:00:00 | 00:00:00 | 00:00:00 | |
| KE7DJD | 2026-09-01 15:33:23 | 45.05465 | -118.08836 | 29° | 66km/h | 14393m | -7.8m/s | -46.9°C | 0% | 0hPa | 0V | 00:00:00 | 00:00:00 | 00:00:00 | |
| KE7DJD | 2026-09-01 15:33:02 | 45.05180 | -118.09098 | 34° | 62km/h | 14556m | -8.0m/s | -47.2°C | 0% | 0hPa | 0V | 00:00:00 | 00:00:00 | 00:00:00 | |
| KE7DJD | 2026-09-01 15:32:42 | 45.04879 | -118.09319 | 30° | 69km/h | 14730m | -8.3m/s | -47.4°C | 0% | 0hPa | 0V | 00:00:00 | 00:00:00 | 00:00:00 | |
| KE7DJD | 2026-09-01 15:32:21 | 45.04588 | -118.09581 | 32° | 66km/h | 14900m | -8.4m/s | -47.6°C | 0% | 0hPa | 0V | 00:00:00 | 00:00:00 | 00:00:00 | |
| KE7DJD | 2026-09-01 15:32:01 | 45.04292 | -118.09816 | 26° | 62km/h | 15085m | -8.6m/s | -47.2°C | 0% | 0hPa | 0V | 00:00:00 | 00:00:00 | 00:00:00 | |
| KE7DJD | 2026-09-01 15:31:40 | 45.03989 | -118.10052 | 31° | 68km/h | 15274m | -8.7m/s | -46.4°C | 0% | 0hPa | 0V | 00:00:00 | 00:00:00 | 00:00:00 | |
| KE7DJD | 2026-09-01 15:31:19 | 45.03681 | -118.10318 | 35° | 71km/h | 15455m | -9.0m/s | -46.5°C | 0% | 0hPa | 0V | 00:00:00 | 00:00:00 | 00:00:00 | |
| KE7DJD | 2026-09-01 15:30:58 | 45.03363 | -118.10564 | 26° | 66km/h | 15648m | -9.5m/s | -46.8°C | 0% | 0hPa | 0V | 00:00:00 | 00:00:00 | 00:00:00 | |
| KE7DJD | 2026-09-01 15:30:37 | 45.03075 | -118.10773 | 36° | 57km/h | 15836m | -8.9m/s | -46.3°C | 0% | 0hPa | 0V | 00:00:00 | 00:00:00 | 00:00:00 | |
| KE7DJD | 2026-09-01 15:30:16 | 45.02829 | -118.10975 | 26° | 55km/h | 15992m | -8.0m/s | -47.0°C | 0% | 0hPa | 0V | 00:00:00 | 00:00:00 | 00:00:00 | |
| KE7DJD | 2026-09-01 15:29:56 | 45.02576 | -118.11201 | 17° | 57km/h | 16153m | -7.8m/s | -46.8°C | 0% | 0hPa | 0V | 00:00:00 | 00:00:00 | 00:00:00 | |
| KE7DJD | 2026-09-01 15:29:35 | 45.02356 | -118.11374 | 18° | 47km/h | 16300m | -7.2m/s | -46.9°C | 0% | 0hPa | 0V | 00:00:00 | 00:00:00 | 00:00:00 | |
| KE7DJD | 2026-09-01 15:29:15 | 45.02138 | -118.11530 | 18° | 53km/h | 16454m | -5.9m/s | -47.2°C | 0% | 0hPa | 0V | 00:00:00 | 00:00:00 | 00:00:00 | |
| KE7DJD | 2026-09-01 15:28:54 | 45.01900 | -118.11677 | 36° | 42km/h | 16615m | -8.3m/s | -46.9°C | 0% | 0hPa | 0V | 00:00:00 | 00:00:00 | 00:00:00 | |
| KE7DJD | 2026-09-01 15:28:34 | 45.01688 | -118.11842 | 35° | 55km/h | 16780m | -6.0m/s | -46.9°C | 0% | 0hPa | 0V | 00:00:00 | 00:00:00 | 00:00:00 | |
| KE7DJD | 2026-09-01 15:28:13 | 45.01480 | -118.12036 | 28° | 60km/h | 16926m | -7.1m/s | -47.6°C | 0% | 0hPa | 0V | 00:00:00 | 00:00:00 | 00:00:00 | |
| KE7DJD | 2026-09-01 15:27:53 | 45.01218 | -118.12250 | 22° | 53km/h | 16871m | 6.9m/s | -47.4°C | 0% | 0hPa | 0V | 00:00:00 | 00:00:00 | 00:00:00 | |
| KE7DJD | 2026-09-01 15:27:32 | 45.00994 | -118.12454 | 23° | 47km/h | 16716m | 8.8m/s | -47.2°C | 0% | 0hPa | 0V | 00:00:00 | 00:00:00 | 00:00:00 | |
| KE7DJD | 2026-09-01 15:27:12 | 45.00793 | -118.12592 | 28° | 49km/h | 16551m | 9.4m/s | -47.6°C | 0% | 0hPa | 0V | 00:00:00 | 00:00:00 | 00:00:00 | |
| KE7DJD | 2026-09-01 15:26:50 | 45.00573 | -118.12753 | 35° | 29km/h | 16386m | 7.3m/s | -47.3°C | 0% | 0hPa | 0V | 00:00:00 | 00:00:00 | 00:00:00 | |
| KE7DJD | 2026-09-01 15:26:30 | 45.00380 | -118.12926 | 46° | 33km/h | 16215m | 11.7m/s | -47.0°C | 0% | 0hPa | 0V | 00:00:00 | 00:00:00 | 00:00:00 | |
| KE7DJD | 2026-09-01 15:26:10 | 45.00160 | -118.13148 | 37° | 37km/h | 16048m | 7.6m/s | -47.2°C | 0% | 0hPa | 0V | 00:00:00 | 00:00:00 | 00:00:00 | |
| KE7DJD | 2026-09-01 15:25:49 | 44.99921 | -118.13322 | 17° | 42km/h | 15873m | 5.3m/s | -46.5°C | 0% | 0hPa | 0V | 00:00:00 | 00:00:00 | 00:00:00 | |
| KE7DJD | 2026-09-01 15:25:29 | 44.99688 | -118.13513 | 30° | 58km/h | 15714m | 4.1m/s | -46.7°C | 0% | 0hPa | 0V | 00:00:00 | 00:00:00 | 00:00:00 | |
| KE7DJD | 2026-09-01 15:25:07 | 44.99399 | -118.13708 | 18° | 58km/h | 15563m | 4.2m/s | -46.9°C | 0% | 0hPa | 0V | 00:00:00 | 00:00:00 | 00:00:00 | |
| KE7DJD | 2026-09-01 15:24:47 | 44.99110 | -118.13970 | 34° | 77km/h | 15389m | 8.4m/s | -47.0°C | 0% | 0hPa | 0V | 00:00:00 | 00:00:00 | 00:00:00 | |
| KE7DJD | 2026-09-01 15:24:26 | 44.98809 | -118.14229 | 29° | 68km/h | 15242m | 7.1m/s | -46.7°C | 0% | 0hPa | 0V | 00:00:00 | 00:00:00 | 00:00:00 | |
| KE7DJD | 2026-09-01 15:24:06 | 44.98529 | -118.14490 | 27° | 49km/h | 15067m | 6.6m/s | -47.3°C | 0% | 0hPa | 0V | 00:00:00 | 00:00:00 | 00:00:00 | |
| KE7DJD | 2026-09-01 15:23:45 | 44.98236 | -118.14701 | 35° | 57km/h | 14876m | 10.7m/s | -47.8°C | 0% | 0hPa | 0V | 00:00:00 | 00:00:00 | 00:00:00 | |
| KE7DJD | 2026-09-01 15:23:24 | 44.97965 | -118.15014 | 24° | 64km/h | 14698m | 8.2m/s | -47.6°C | 0% | 0hPa | 0V | 00:00:00 | 00:00:00 | 00:00:00 | |
| KE7DJD | 2026-09-01 15:23:03 | 44.97726 | -118.15243 | 3° | 38km/h | 14527m | 8.5m/s | -47.6°C | 0% | 0hPa | 0V | 00:00:00 | 00:00:00 | 00:00:00 | |
| KE7DJD | 2026-09-01 15:22:43 | 44.97369 | -118.15529 | 23° | 35km/h | 14321m | 10.9m/s | -47.1°C | 0% | 0hPa | 0V | 00:00:00 | 00:00:00 | 00:00:00 | |
| KE7DJD | 2026-09-01 15:22:22 | 44.97134 | -118.15771 | 16° | 86km/h | 14142m | 7.7m/s | -46.4°C | 0% | 0hPa | 0V | 00:00:00 | 00:00:00 | 00:00:00 | |
| KE7DJD | 2026-09-01 15:21:41 | 44.96679 | -118.15993 | 10° | 15km/h | 13725m | 4.6m/s | -46.0°C | 0% | 0hPa | 0V | 00:00:00 | 00:00:00 | 00:00:00 | |
| KE7DJD | 2026-09-01 15:21:19 | 44.96472 | -118.16133 | 96° | 49km/h | 13509m | 10.0m/s | -45.1°C | 0% | 0hPa | 0V | 00:00:00 | 00:00:00 | 00:00:00 | |
| KE7DJD | 2026-09-01 15:20:36 | 44.95871 | -118.16660 | 359° | 57km/h | 13088m | 7.9m/s | -44.8°C | 0% | 0hPa | 0V | 00:00:00 | 00:00:00 | 00:00:00 | |
| KE7DJD | 2026-09-01 15:20:14 | 44.95459 | -118.16908 | 354° | 89km/h | 12892m | 7.0m/s | -46.5°C | 0% | 0hPa | 0V | 00:00:00 | 00:00:00 | 00:00:00 | |
| KE7DJD | 2026-09-01 15:19:53 | 44.95082 | -118.17023 | 26° | 93km/h | 12702m | 7.6m/s | -46.4°C | 0% | 0hPa | 0V | 00:00:00 | 00:00:00 | 00:00:00 | |
| KE7DJD | 2026-09-01 15:19:24 | 44.94522 | -118.17219 | 346° | 100km/h | 12428m | 6.3m/s | 0°C | 0% | 0hPa | 0V | 00:00:00 | 00:00:00 | 00:00:00 | |
| KE7DJD | 2026-09-01 15:18:50 | 44.93742 | -118.17371 | 13° | 119km/h | 12122m | 9.0m/s | -49.6°C | 0% | 0hPa | 0V | 00:00:00 | 00:00:00 | 00:00:00 | |
| KE7DJD | 2026-09-01 15:18:29 | 44.93285 | -118.17419 | 334° | 69km/h | 11916m | 8.3m/s | -51.4°C | 0% | 0hPa | 0V | 00:00:00 | 00:00:00 | 00:00:00 | |
| KE7DJD | 2026-09-01 15:17:59 | 44.92620 | -118.17564 | 352° | 86km/h | 11606m | 9.5m/s | 0°C | 0% | 0hPa | 0V | 00:00:00 | 00:00:00 | 00:00:00 | |
| KE7DJD | 2026-09-01 15:17:29 | 44.92042 | -118.17746 | 360° | 89km/h | 11317m | 6.5m/s | -48.0°C | 0% | 0hPa | 0V | 00:00:00 | 00:00:00 | 00:00:00 | |
| KE7DJD | 2026-09-01 15:17:09 | 44.91583 | -118.17856 | 25° | 68km/h | 11128m | 9.5m/s | -47.1°C | 0% | 0hPa | 0V | 00:00:00 | 00:00:00 | 00:00:00 | |
| KE7DJD | 2026-09-01 15:16:48 | 44.91147 | -118.17957 | 358° | 78km/h | 10953m | 6.6m/s | -47.2°C | 0% | 0hPa | 0V | 00:00:00 | 00:00:00 | 00:00:00 | |
| KE7DJD | 2026-09-01 15:16:27 | 44.90688 | -118.18080 | 9° | 91km/h | 10780m | 11.1m/s | -45.7°C | 0% | 0hPa | 0V | 00:00:00 | 00:00:00 | 00:00:00 | |
| KE7DJD | 2026-09-01 15:16:06 | 44.90268 | -118.18239 | 8° | 119km/h | 10602m | 6.7m/s | -44.0°C | 0% | 0hPa | 0V | 00:00:00 | 00:00:00 | 00:00:00 | |
| KE7DJD | 2026-09-01 15:15:46 | 44.89820 | -118.18388 | 4° | 106km/h | 10447m | 10.0m/s | -42.7°C | 0% | 0hPa | 0V | 00:00:00 | 00:00:00 | 00:00:00 | |
| KE7DJD | 2026-09-01 15:15:25 | 44.89356 | -118.18543 | 10° | 120km/h | 10272m | 8.6m/s | -41.4°C | 0% | 0hPa | 0V | 00:00:00 | 00:00:00 | 00:00:00 | |
| KE7DJD | 2026-09-01 15:15:05 | 44.88865 | -118.18598 | 353° | 80km/h | 10112m | 6.6m/s | -40.2°C | 0% | 0hPa | 0V | 00:00:00 | 00:00:00 | 00:00:00 | |
| KE7DJD | 2026-09-01 15:14:45 | 44.88339 | -118.18616 | 356° | 104km/h | 9944m | 6.6m/s | -38.7°C | 0% | 0hPa | 0V | 00:00:00 | 00:00:00 | 00:00:00 | |
| KE7DJD | 2026-09-01 15:14:24 | 44.87882 | -118.18711 | 359° | 113km/h | 9795m | 7.3m/s | -37.3°C | 0% | 0hPa | 0V | 00:00:00 | 00:00:00 | 00:00:00 | |
| KE7DJD | 2026-09-01 15:14:04 | 44.87411 | -118.18726 | 6° | 75km/h | 9635m | 10.3m/s | -36.0°C | 0% | 0hPa | 0V | 00:00:00 | 00:00:00 | 00:00:00 | |
| KE7DJD | 2026-09-01 15:13:43 | 44.86952 | -118.18751 | 359° | 102km/h | 9468m | 9.6m/s | -34.4°C | 0% | 0hPa | 0V | 00:00:00 | 00:00:00 | 00:00:00 | |
| KE7DJD | 2026-09-01 15:13:23 | 44.86503 | -118.18756 | 14° | 88km/h | 9298m | 7.6m/s | -32.9°C | 0% | 0hPa | 0V | 00:00:00 | 00:00:00 | 00:00:00 | |
| KE7DJD | 2026-09-01 15:13:02 | 44.86062 | -118.18753 | 353° | 69km/h | 9148m | 7.8m/s | -31.6°C | 0% | 0hPa | 0V | 00:00:00 | 00:00:00 | 00:00:00 | |
| KE7DJD | 2026-09-01 15:12:42 | 44.85610 | -118.18786 | 356° | 97km/h | 8992m | 6.1m/s | -30.3°C | 0% | 0hPa | 0V | 00:00:00 | 00:00:00 | 00:00:00 | |
| KE7DJD | 2026-09-01 15:12:21 | 44.85215 | -118.18806 | 2° | 86km/h | 8842m | 7.1m/s | -29.0°C | 0% | 0hPa | 0V | 00:00:00 | 00:00:00 | 00:00:00 | |
| KE7DJD | 2026-09-01 15:11:40 | 44.84460 | -118.18996 | 359° | 80km/h | 8525m | 5.7m/s | -26.4°C | 0% | 0hPa | 0V | 00:00:00 | 00:00:00 | 00:00:00 | |
| KE7DJD | 2026-09-01 15:11:20 | 44.84086 | -118.19121 | 24° | 73km/h | 8376m | 6.0m/s | -25.2°C | 0% | 0hPa | 0V | 00:00:00 | 00:00:00 | 00:00:00 | |
| KE7DJD | 2026-09-01 15:10:59 | 44.83679 | -118.19259 | 19° | 89km/h | 8217m | 5.7m/s | -24.1°C | 0% | 0hPa | 0V | 00:00:00 | 00:00:00 | 00:00:00 | |
| KE7DJD | 2026-09-01 15:10:38 | 44.83345 | -118.19365 | 9° | 57km/h | 8072m | 6.6m/s | -22.9°C | 0% | 0hPa | 0V | 00:00:00 | 00:00:00 | 00:00:00 | |
| KE7DJD | 2026-09-01 15:10:17 | 44.83006 | -118.19460 | 10° | 84km/h | 7915m | 8.0m/s | -21.7°C | 0% | 0hPa | 0V | 00:00:00 | 00:00:00 | 00:00:00 | |
| KE7DJD | 2026-09-01 15:09:57 | 44.82705 | -118.19586 | 34° | 60km/h | 7752m | 9.5m/s | -19.9°C | 0% | 0hPa | 0V | 00:00:00 | 00:00:00 | 00:00:00 | |
| KE7DJD | 2026-09-01 15:09:37 | 44.82443 | -118.19707 | 6° | 42km/h | 7585m | 10.1m/s | -18.7°C | 0% | 0hPa | 0V | 00:00:00 | 00:00:00 | 00:00:00 | |
| KE7DJD | 2026-09-01 15:09:15 | 44.82182 | -118.19810 | 12° | 33km/h | 7404m | 5.6m/s | -16.9°C | 0% | 0hPa | 0V | 00:00:00 | 00:00:00 | 00:00:00 |